Home > Products > Valid Products > MTR

000
SAUS46 KSEW 231659
MTRSMP
METAR KSMP 231656Z AUTO 00000KT 10SM FEW075 BKN100 BKN120 13/07
A2995 RMK AO2 SLP129 T01330072 $





000
SAUS46 KSEW 231258
MTRSMP
METAR KSMP 231256Z AUTO 03003KT 10SM CLR 10/07 A2995 RMK AO2 SLP130
T01000072 $





000
SAUS46 KSEW 231157
MTRSMP
METAR KSMP 231156Z AUTO VRB04KT 10SM CLR 11/07 A2997 RMK AO2 SLP134
60000 70002 T01110072 10150 20111 56011 $





000
SAUS46 KSEW 231057
MTRSMP
METAR KSMP 231056Z AUTO 00000KT 10SM CLR 13/07 A2997 RMK AO2 RAE00
SLP134 P0000 T01280067 $





000
SAUS46 KSEW 230858
MTRSMP
METAR KSMP 230856Z AUTO 00000KT 10SM BKN070 BKN100 14/06 A3000 RMK
AO2 SLP144 T01390061 55001 $





000
SAUS46 KSEW 230759
MTRSMP
METAR KSMP 230756Z AUTO 00000KT 10SM SCT049 13/07 A2999 RMK AO2
SLP142 T01330072 401440100 $





000
SAUS46 KSEW 230657
MTRSMP
METAR KSMP 230656Z AUTO 00000KT 10SM CLR 14/07 A3000 RMK AO2 SLP142
T01440067 $





000
SAUS46 KSEW 230558
MTRSMP
METAR KSMP 230556Z AUTO 00000KT 10SM SCT075 13/08 A3001 RMK AO2
SLP147 T01280078 10139 20111 56003 $





000
SAUS46 KSEW 230546
MTRSMP
SPECI KSMP 230542Z AUTO 09003KT 10SM SCT001 BKN070 BKN080 12/09
A3001 RMK AO2 T01170094 $





000
SAUS46 KSEW 230540 COR
MTRSMP
SPECI KSMP 230533Z AUTO 23003KT 4SM BR BKN001 BKN080 11/10 A3001 RMK
AO2 T01110100 $





000
SAUS46 KSEW 230536
MTRSMP
SPECI KSMP 230533Z AUTO 23003KT 4SM BR BKN001 BKN080 11/10 A3001 RMK
AO2 T01110100 $





000
SAUS46 KSEW 230532
MTRSMP
SPECI KSMP 230531Z AUTO 23004KT 1 3/4SM BR BKN001 BKN080 11/10 A3001
RMK AO2 T01110100 $





000
SAUS46 KSEW 230458
MTRSMP
METAR KSMP 230456Z AUTO 23005KT 10SM CLR 11/10 A3001 RMK AO2 SLP151
T01110100 $





000
SAUS46 KSEW 230258
MTRSMP
METAR KSMP 230256Z AUTO 23005KT 1 1/4SM BR OVC001 11/10 A3002 RMK
AO2 SLP157 T01110100 56003 $





000
SAUS46 KSEW 230204
MTRSMP
METAR KSMP 230156Z AUTO 23003KT 5SM BR BKN001 12/11 A3002 RMK AO2
SLP155 T01170106 $





000
SAUS46 KSEW 221900
MTRSMP
METAR KSMP 221856Z AUTO VRB05KT M1/4SM FG VV001 12/11 A3005 RMK AO2
SLP164 T01170111 $





000
SAUS46 KSEW 221844
MTRSMP
SPECI KSMP 221
NO CARRIER

RING

CONNECT 1200

SEAMTRSMP ALL
TTAA00 KSMP 221840 SPL
SPECI KSMP 221840Z AUTO VRB05KT 3/4SM BR OVC002 12/11 A3005 RMK AO2
T01220111 $





000
SAUS46 KSEW 221811
MTRSMP
SPECI KSMP 221808Z AUTO 21005KT M1/4SM FG VV001 12/11 A3005 RMK AO2
T01220111 $





000
SAUS46 KSEW 221759
MTRSMP
METAR KSMP 221756Z AUTO 24004KT 1/2SM FG VV001 12/11 A3004 RMK AO2
RAB07E17 SLP157 P0000 60002 T01220111 10128 20100 50005 $





000
SAUS46 KSEW 221103
MTRSMP
METAR KSMP 221056Z AUTO VRB04KT 10SM BKN100 14/11 A3003 RMK AO2
SLP135 T01390106 $





000
SAUS46 KSEW 220657
MTRSMP
METAR KSMP 220656Z AUTO 24007KT 10SM FEW120 12/10 A3004 RMK AO2
SLP146 T01220100 $





000
SAUS46 KSEW 211858
MTRSMP
METAR KSMP 211856Z AUTO VRB03KT 10SM CLR 21/07 A3007 RMK AO2 SLP154
T02110067 $





000
SAUS46 KSEW 211003
MTRSMP
METAR KSMP 210956Z AUTO VRB03KT 10SM CLR 14/06 A3009 RMK AO2 SLP160
T01390061 $





000
SAUS46 KSEW 210804
MTRSMP
METAR KSMP 210756Z AUTO VRB03KT 10SM CLR 14/07 A3011 RMK AO2 SLP170
T01390067 402110089 $





    US Dept of Commerce
    National Oceanic and Atmospheric Administration
    National Weather Service
    1325 East West Highway
    Silver Spring, MD 20910
    Page Author: NWS Internet Services Team
Disclaimer
Information Quality
Credits
Glossary
Privacy Policy
Freedom of Information Act (FOIA)
About Us
Career Opportunities